Time;durP1;ratioP1;P1;durP2;ratioP2;P2;SDS_P1;SDS_P2;PMS_P1;PMS_P2;Temp;Humidity;BMP_temperature;BMP_pressure;BME280_temperature;BME280_humidity;BME280_pressure;Samples;Min_cycle;Max_cycle;Signal;HPM_P1;HPM_P2
2021/10/30 00:01:18;;;;;;;10.10;8.07;;;;;;;7.19;79.27;100959.47;1778098;80;21092;-57
2021/10/30 00:03:45;;;;;;;10.83;8.97;;;;;;;7.17;79.29;100953.69;1774850;80;20891;-58
2021/10/30 00:06:11;;;;;;;13.13;9.70;;;;;;;7.16;79.32;100957.27;1776428;80;20914;-58
2021/10/30 00:08:37;;;;;;;11.33;9.80;;;;;;;7.13;79.38;100956.89;1777007;80;20917;-58
2021/10/30 00:11:04;;;;;;;12.07;10.87;;;;;;;7.12;79.43;100950.21;1778904;80;20970;-57
2021/10/30 00:13:30;;;;;;;14.40;10.87;;;;;;;7.10;79.39;100952.91;1778571;80;21091;-58
2021/10/30 00:15:58;;;;;;;11.17;8.80;;;;;;;7.07;79.40;100958.30;1770723;80;20954;-58
2021/10/30 00:18:25;;;;;;;9.53;8.53;;;;;;;7.06;79.48;100952.99;1774959;80;20910;-58
2021/10/30 00:20:52;;;;;;;17.90;9.33;;;;;;;7.03;79.52;100951.23;1774030;79;22018;-58
2021/10/30 00:23:18;;;;;;;10.63;8.33;;;;;;;7.02;79.61;100945.45;1772072;80;21316;-58
2021/10/30 00:25:44;;;;;;;9.43;8.40;;;;;;;7.03;79.66;100947.67;1773989;80;21034;-57
2021/10/30 00:28:11;;;;;;;8.83;7.77;;;;;;;7.04;79.64;100946.31;1774098;80;21433;-57
2021/10/30 00:30:38;;;;;;;9.97;8.87;;;;;;;7.05;79.63;100945.86;1774441;80;21794;-58
2021/10/30 00:33:05;;;;;;;11.20;9.20;;;;;;;7.06;79.61;100944.48;1775222;80;22542;-59
2021/10/30 00:35:32;;;;;;;10.07;8.83;;;;;;;7.04;79.53;100947.66;1779257;80;20970;-58
2021/10/30 00:37:59;;;;;;;10.47;9.00;;;;;;;7.02;79.50;100940.55;1771448;80;21089;-58
2021/10/30 00:40:25;;;;;;;12.50;10.33;;;;;;;7.01;79.47;100941.45;1772864;80;21060;-59
2021/10/30 00:42:52;;;;;;;11.70;10.00;;;;;;;6.98;79.46;100942.82;1777732;79;21080;-58
2021/10/30 00:45:18;;;;;;;12.23;9.23;;;;;;;6.95;79.38;100942.89;1774646;79;21104;-57
2021/10/30 00:47:45;;;;;;;10.30;9.00;;;;;;;6.93;79.41;100946.92;1776064;79;21394;-59
2021/10/30 00:50:11;;;;;;;9.13;8.20;;;;;;;6.92;79.47;100945.59;1775035;79;21041;-60
2021/10/30 00:52:38;;;;;;;9.00;8.20;;;;;;;6.91;79.54;100943.38;1774499;79;21358;-59
2021/10/30 00:55:09;;;;;;;8.17;7.37;;;;;;;6.89;79.52;100936.30;1776117;79;20942;-58
2021/10/30 00:57:38;;;;;;;8.33;7.73;;;;;;;6.88;79.55;100942.55;1776638;79;20938;-59
2021/10/30 01:00:06;;;;;;;9.30;7.63;;;;;;;6.86;79.58;100941.23;1777390;79;21004;-58
2021/10/30 01:02:33;;;;;;;9.80;8.80;;;;;;;6.86;79.62;100943.02;1778713;79;21094;-58
2021/10/30 01:04:59;;;;;;;11.20;9.97;;;;;;;6.86;79.61;100938.55;1774215;79;20901;-58
2021/10/30 01:07:27;;;;;;;10.60;8.90;;;;;;;6.86;79.58;100933.65;1774203;79;21108;-59
2021/10/30 01:09:53;;;;;;;9.90;9.03;;;;;;;6.83;79.51;100935.45;1772621;79;21085;-58
2021/10/30 01:12:19;;;;;;;7.77;6.97;;;;;;;6.82;79.46;100932.80;1773153;79;21143;-58
2021/10/30 01:14:46;;;;;;;9.17;8.20;;;;;;;6.79;79.42;100938.21;1773007;79;21555;-59
2021/10/30 01:17:13;;;;;;;8.87;7.77;;;;;;;6.77;79.46;100940.02;1778671;79;21927;-58
2021/10/30 01:19:40;;;;;;;9.43;7.50;;;;;;;6.75;79.51;100941.37;1774930;79;22312;-58
2021/10/30 01:22:06;;;;;;;10.70;9.60;;;;;;;6.76;79.53;100940.47;1772283;79;21031;-58
2021/10/30 01:24:32;;;;;;;10.17;9.17;;;;;;;6.75;79.52;100945.84;1779894;79;21597;-58
2021/10/30 01:26:59;;;;;;;11.13;8.53;;;;;;;6.75;79.64;100937.36;1776463;79;21492;-57
2021/10/30 01:29:25;;;;;;;11.00;8.83;;;;;;;6.75;79.61;100939.14;1778670;79;21080;-58
2021/10/30 01:31:53;;;;;;;9.73;8.53;;;;;;;6.74;79.65;100942.27;1776139;79;21117;-58
2021/10/30 01:34:21;;;;;;;14.60;9.70;;;;;;;6.73;79.71;100937.82;1773855;79;21463;-58
2021/10/30 01:36:48;;;;;;;12.83;8.50;;;;;;;6.72;79.69;100943.22;1741332;79;21119;-58
2021/10/30 01:39:16;;;;;;;7.97;7.17;;;;;;;6.72;79.75;100940.55;1774150;79;21334;-58
2021/10/30 01:41:42;;;;;;;10.93;9.13;;;;;;;6.71;79.77;100945.02;1774991;79;20998;-58
2021/10/30 01:44:09;;;;;;;9.07;8.17;;;;;;;6.70;79.87;100945.91;1771521;80;21076;-59
2021/10/30 01:46:38;;;;;;;8.80;7.57;;;;;;;6.71;79.97;100941.00;1774206;80;21085;-58
2021/10/30 01:49:05;;;;;;;9.67;8.77;;;;;;;6.73;80.06;100939.16;1772437;80;21148;-59
2021/10/30 01:51:31;;;;;;;10.27;8.43;;;;;;;6.74;80.08;100941.38;1769780;80;21157;-58
2021/10/30 01:53:58;;;;;;;9.90;8.73;;;;;;;6.73;80.21;100944.52;1769873;80;21069;-58
2021/10/30 01:56:24;;;;;;;8.10;7.03;;;;;;;6.74;80.29;100943.61;1771932;80;21120;-59
2021/10/30 01:58:50;;;;;;;14.87;9.67;;;;;;;6.74;80.32;100944.95;1769221;80;21044;-58
2021/10/30 02:01:17;;;;;;;9.90;8.13;;;;;;;6.74;80.37;100947.62;1766487;80;21088;-58
2021/10/30 02:03:43;;;;;;;8.53;7.67;;;;;;;6.75;80.39;100944.50;1768754;80;21718;-56
2021/10/30 02:06:09;;;;;;;12.33;8.93;;;;;;;6.75;80.49;100944.05;1773447;79;21480;-56
2021/10/30 02:08:36;;;;;;;8.03;7.07;;;;;;;6.76;80.57;100941.80;1770935;80;21108;-56
2021/10/30 02:11:03;;;;;;;9.60;7.87;;;;;;;6.78;80.72;100945.80;1771750;80;21073;-56
2021/10/30 02:13:30;;;;;;;7.63;6.90;;;;;;;6.81;80.75;100955.11;1766694;80;21053;-56
2021/10/30 02:15:56;;;;;;;9.17;8.10;;;;;;;6.83;80.93;100941.26;1775691;80;21157;-56
2021/10/30 02:18:23;;;;;;;9.50;8.27;;;;;;;6.86;80.97;100944.36;1773782;80;21085;-57
2021/10/30 02:20:50;;;;;;;14.07;9.57;;;;;;;6.86;80.99;100944.36;1771398;80;21047;-58
2021/10/30 02:23:16;;;;;;;13.80;9.47;;;;;;;6.85;81.10;100946.14;1775338;80;21041;-56
2021/10/30 02:25:43;;;;;;;14.20;9.27;;;;;;;6.84;81.15;100949.72;1766910;80;21030;-57
2021/10/30 02:28:10;;;;;;;9.90;8.73;;;;;;;6.84;81.21;100949.72;1769329;80;22587;-56
2021/10/30 02:30:36;;;;;;;12.70;7.90;;;;;;;6.85;81.31;100950.16;1769158;80;21529;-56
2021/10/30 02:33:03;;;;;;;9.63;8.03;;;;;;;6.86;81.42;100955.95;1768105;80;21088;-57
2021/10/30 02:35:29;;;;;;;10.37;7.57;;;;;;;6.88;81.50;100950.58;1772691;80;21048;-57
2021/10/30 02:37:56;;;;;;;8.10;7.30;;;;;;;6.92;81.58;100954.96;1770833;80;21127;-57
2021/10/30 02:40:23;;;;;;;9.50;8.20;;;;;;;6.96;81.70;100957.59;1775123;80;22611;-55
2021/10/30 02:42:49;;;;;;;7.37;6.40;;;;;;;6.99;81.72;100958.86;1774769;79;21268;-56
2021/10/30 02:45:17;;;;;;;8.37;7.50;;;;;;;7.02;81.75;100963.30;1778877;80;21042;-56
2021/10/30 02:47:44;;;;;;;9.03;8.13;;;;;;;7.03;81.76;100965.08;1782334;80;21028;-57
2021/10/30 02:50:11;;;;;;;12.17;8.10;;;;;;;7.00;81.75;100961.98;1778545;80;21080;-57
2021/10/30 02:52:39;;;;;;;10.70;7.90;;;;;;;6.96;81.80;100968.30;1778390;80;21200;-56
2021/10/30 02:55:06;;;;;;;8.10;7.20;;;;;;;6.94;81.83;100970.11;1781156;80;20914;-55
2021/10/30 02:57:34;;;;;;;9.87;6.97;;;;;;;6.93;81.88;100970.13;1781277;80;20865;-57
2021/10/30 03:00:00;;;;;;;10.83;8.57;;;;;;;6.92;82.02;100971.02;1780261;80;20910;-57
2021/10/30 03:02:27;;;;;;;8.53;7.33;;;;;;;6.91;82.12;100966.13;1781920;80;21088;-57
2021/10/30 03:04:53;;;;;;;8.87;7.47;;;;;;;6.94;82.32;100967.88;1783027;80;20981;-57
2021/10/30 03:07:22;;;;;;;11.50;6.90;;;;;;;6.95;82.35;100966.52;1779740;80;21554;-56
2021/10/30 03:09:50;;;;;;;6.97;6.00;;;;;;;6.97;82.39;100969.19;1780650;80;20998;-56
2021/10/30 03:12:18;;;;;;;8.50;5.83;;;;;;;6.97;82.41;100972.75;1781577;80;20914;-56
2021/10/30 03:14:45;;;;;;;7.20;6.57;;;;;;;6.99;82.51;100970.02;1778553;80;20888;-56
2021/10/30 03:17:12;;;;;;;9.73;8.47;;;;;;;7.02;82.52;100977.57;1781545;80;22173;-57
2021/10/30 03:19:38;;;;;;;13.93;9.03;;;;;;;7.03;82.47;100974.44;1781832;80;20978;-58
2021/10/30 03:22:05;;;;;;;9.63;8.43;;;;;;;7.02;82.45;100974.89;1778860;80;20946;-56
2021/10/30 03:24:31;;;;;;;10.47;7.40;;;;;;;7.00;82.45;100970.45;1782360;80;20957;-56
2021/10/30 03:26:57;;;;;;;10.50;6.53;;;;;;;7.00;82.46;100967.78;1784500;80;22281;-55
2021/10/30 03:29:24;;;;;;;8.83;7.97;;;;;;;6.98;82.46;100969.14;1780868;80;20879;-57
2021/10/30 03:31:50;;;;;;;7.43;6.43;;;;;;;6.97;82.44;100967.84;1782976;80;20891;-56
2021/10/30 03:34:16;;;;;;;7.40;6.40;;;;;;;6.94;82.47;100971.44;1779362;79;22348;-56
2021/10/30 03:36:43;;;;;;;5.87;5.37;;;;;;;6.93;82.55;100975.02;1779700;80;21447;-55
2021/10/30 03:39:09;;;;;;;7.57;6.77;;;;;;;6.92;82.61;100967.89;1754540;81;21347;-56
2021/10/30 03:41:36;;;;;;;9.37;6.97;;;;;;;6.93;82.68;100976.81;1757373;81;21619;-55
2021/10/30 03:44:03;;;;;;;9.33;7.00;;;;;;;6.93;82.75;100976.36;1767309;80;21582;-56
2021/10/30 03:46:31;;;;;;;7.90;7.10;;;;;;;6.95;82.83;100970.99;1767434;79;21033;-56
2021/10/30 03:48:58;;;;;;;7.93;7.13;;;;;;;6.99;82.77;100976.72;1762690;79;21080;-55
2021/10/30 03:51:26;;;;;;;6.83;5.53;;;;;;;6.99;82.74;100975.38;1795456;78;21450;-57
2021/10/30 03:53:53;;;;;;;7.67;5.67;;;;;;;6.98;82.77;100973.16;1762773;80;22433;-56
2021/10/30 03:56:19;;;;;;;6.97;6.27;;;;;;;6.98;82.87;100972.27;1764787;80;22272;-57
2021/10/30 03:58:45;;;;;;;6.27;5.43;;;;;;;7.01;82.92;100965.54;1763586;80;21544;-57
2021/10/30 04:01:12;;;;;;;7.47;6.13;;;;;;;7.03;82.93;100968.64;1760991;79;21065;-55
2021/10/30 04:03:39;;;;;;;7.27;6.57;;;;;;;7.04;82.96;100972.20;1765445;80;21591;-55
2021/10/30 04:06:05;;;;;;;8.77;7.97;;;;;;;7.04;83.03;100968.19;1761955;80;21998;-57
2021/10/30 04:08:32;;;;;;;8.87;6.83;;;;;;;7.06;83.04;100971.25;1764349;80;21511;-56
2021/10/30 04:10:58;;;;;;;9.10;7.93;;;;;;;7.06;83.01;100973.07;1762892;80;21057;-56
2021/10/30 04:13:25;;;;;;;9.77;7.37;;;;;;;7.07;82.99;100975.70;1763183;80;21669;-57
2021/10/30 04:15:51;;;;;;;7.03;6.47;;;;;;;7.09;82.98;100978.36;1761052;80;21053;-57
2021/10/30 04:18:17;;;;;;;6.70;6.13;;;;;;;7.10;83.00;100974.78;1759900;80;21099;-56
2021/10/30 04:20:44;;;;;;;6.23;5.67;;;;;;;7.11;83.03;100971.20;1768051;80;21081;-55
2021/10/30 04:23:10;;;;;;;5.90;5.30;;;;;;;7.11;82.97;100973.88;1765210;80;21155;-56
2021/10/30 04:25:36;;;;;;;6.03;5.53;;;;;;;7.09;83.00;100967.20;1761979;80;21107;-58
2021/10/30 04:28:03;;;;;;;5.50;5.03;;;;;;;7.08;83.03;100972.12;1758975;80;21433;-57
2021/10/30 04:30:30;;;;;;;5.97;5.37;;;;;;;7.08;83.04;100973.45;1765855;80;21529;-56
2021/10/30 04:32:56;;;;;;;8.70;5.97;;;;;;;7.08;83.04;100976.59;1763176;80;21089;-57
2021/10/30 04:35:23;;;;;;;7.33;5.73;;;;;;;7.09;83.12;100973.89;1762529;80;21089;-58
2021/10/30 04:37:51;;;;;;;6.07;5.57;;;;;;;7.11;83.13;100971.20;1766242;80;21081;-56
2021/10/30 04:40:17;;;;;;;8.03;7.10;;;;;;;7.11;83.14;100973.88;1765786;80;21045;-56
2021/10/30 04:42:43;;;;;;;7.80;7.10;;;;;;;7.09;83.13;100971.66;1765647;80;23286;-56
2021/10/30 04:45:10;;;;;;;6.13;5.57;;;;;;;7.07;83.16;100967.66;1762066;80;21037;-58
2021/10/30 04:47:36;;;;;;;7.70;6.23;;;;;;;7.07;83.21;100972.14;1764045;80;21528;-56
2021/10/30 04:50:03;;;;;;;7.30;5.87;;;;;;;7.09;83.19;100971.66;1762603;80;21551;-57
2021/10/30 04:52:30;;;;;;;6.00;5.60;;;;;;;7.09;83.25;100977.02;1764858;80;20963;-58
2021/10/30 04:54:57;;;;;;;5.43;4.93;;;;;;;7.09;83.27;100968.53;1765199;80;21049;-58
2021/10/30 04:57:23;;;;;;;5.63;5.13;;;;;;;7.10;83.32;100973.44;1762810;80;21073;-57
2021/10/30 04:59:49;;;;;;;6.87;5.33;;;;;;;7.11;83.34;100972.53;1763702;80;21081;-55
2021/10/30 05:02:15;;;;;;;4.87;4.53;;;;;;;7.10;83.34;100969.42;1759899;80;21045;-58
2021/10/30 05:04:42;;;;;;;5.87;5.37;;;;;;;7.12;83.40;100976.53;1760925;80;21054;-55
2021/10/30 05:07:08;;;;;;;8.37;7.30;;;;;;;7.12;83.37;100980.55;1762250;80;22614;-56
2021/10/30 05:09:34;;;;;;;6.50;5.10;;;;;;;7.12;83.47;100970.30;1766856;80;21308;-57
2021/10/30 05:12:00;;;;;;;6.30;5.77;;;;;;;7.12;83.47;100964.94;1763836;80;21547;-56
2021/10/30 05:14:27;;;;;;;8.13;7.43;;;;;;;7.12;83.41;100967.62;1765297;80;22145;-57
2021/10/30 05:16:55;;;;;;;6.30;5.70;;;;;;;7.11;83.41;100975.22;1760034;80;21029;-58
2021/10/30 05:19:21;;;;;;;7.00;6.23;;;;;;;7.11;83.42;100984.59;1766618;80;21584;-56
2021/10/30 05:21:47;;;;;;;5.60;5.10;;;;;;;7.10;83.51;100977.45;1765894;80;21776;-56
2021/10/30 05:24:14;;;;;;;9.07;5.80;;;;;;;7.11;83.52;100977.89;1765890;80;21329;-56
2021/10/30 05:26:40;;;;;;;7.17;6.27;;;;;;;7.15;83.55;100982.27;1761313;80;21546;-57
2021/10/30 05:29:07;;;;;;;6.13;5.63;;;;;;;7.17;83.57;100980.02;1766116;80;21406;-56
2021/10/30 05:31:35;;;;;;;5.70;5.27;;;;;;;7.20;83.56;100979.98;1766688;80;21735;-57
2021/10/30 05:34:02;;;;;;;6.13;5.53;;;;;;;7.25;83.58;100989.72;1760060;80;22051;-57
2021/10/30 05:36:36;;;;;;;8.83;7.20;;;;;;;7.28;83.49;100987.02;1761706;80;21084;-57
2021/10/30 05:39:16;;;;;;;7.80;7.00;;;;;;;7.27;83.44;100988.80;1762928;80;22086;-56
2021/10/30 05:41:43;;;;;;;6.83;6.23;;;;;;;7.28;83.32;100998.61;1762902;80;21041;-56
2021/10/30 05:44:09;;;;;;;10.40;5.40;;;;;;;7.27;83.26;100998.63;1761573;80;21110;-56
2021/10/30 05:46:39;;;;;;;5.57;5.17;;;;;;;7.25;83.26;100999.98;1752422;81;21030;-56
2021/10/30 05:49:06;;;;;;;5.45;4.55;;;;;;;7.25;83.24;101002.66;1749515;81;21492;-55
2021/10/30 05:51:34;;;;;;;5.47;4.97;;;;;;;7.25;83.21;101001.33;1751044;81;21059;-56
2021/10/30 05:54:01;;;;;;;5.37;4.87;;;;;;;7.25;83.20;101006.68;1751320;81;21086;-57
2021/10/30 05:56:27;;;;;;;8.67;5.77;;;;;;;7.26;83.21;101010.25;1751405;81;21152;-56
2021/10/30 05:58:55;;;;;;;7.63;5.37;;;;;;;7.29;83.28;101011.09;1748080;80;21097;-56
2021/10/30 06:01:22;;;;;;;5.63;5.23;;;;;;;7.30;83.18;101015.55;1744391;80;21072;-57
2021/10/30 06:03:48;;;;;;;8.10;4.33;;;;;;;7.30;83.18;101014.66;1766717;80;21066;-56
2021/10/30 06:06:14;;;;;;;4.33;4.03;;;;;;;7.32;83.12;101023.53;1741603;80;21068;-57
2021/10/30 06:08:41;;;;;;;4.20;3.90;;;;;;;7.31;83.02;101020.00;1760841;81;21131;-58
2021/10/30 06:11:09;;;;;;;5.70;4.43;;;;;;;7.31;83.00;101021.34;1756208;81;20903;-57
2021/10/30 06:13:35;;;;;;;5.33;4.93;;;;;;;7.31;82.97;101017.78;1743939;80;20928;-56
2021/10/30 06:16:02;;;;;;;4.73;4.33;;;;;;;7.30;82.97;101023.59;1759265;81;20903;-56
2021/10/30 06:18:28;;;;;;;4.60;4.30;;;;;;;7.31;83.02;101028.49;1760105;81;21489;-56
2021/10/30 06:20:55;;;;;;;3.83;3.63;;;;;;;7.31;82.99;101024.47;1758243;80;21741;-56
2021/10/30 06:23:21;;;;;;;3.80;3.50;;;;;;;7.32;82.89;101026.22;1741835;81;21329;-57
2021/10/30 06:25:49;;;;;;;4.07;3.70;;;;;;;7.32;82.83;101028.89;1755712;81;20919;-55
2021/10/30 06:28:16;;;;;;;4.27;3.97;;;;;;;7.32;82.77;101028.44;1780392;80;21314;-57
2021/10/30 06:30:42;;;;;;;3.73;2.53;;;;;;;7.31;82.76;101027.15;1750698;81;21466;-56
2021/10/30 06:33:09;;;;;;;5.07;4.07;;;;;;;7.32;82.82;101020.41;1751830;81;21378;-58
2021/10/30 06:35:36;;;;;;;3.93;3.57;;;;;;;7.32;82.79;101032.91;1735871;80;21528;-55
2021/10/30 06:38:04;;;;;;;4.83;4.43;;;;;;;7.32;82.84;101029.78;1758683;81;20860;-55
2021/10/30 06:40:30;;;;;;;3.60;3.33;;;;;;;7.35;82.89;101028.41;1758149;81;21002;-57
2021/10/30 06:42:57;;;;;;;4.62;3.98;;;;;;;7.38;82.88;101032.39;1741357;81;20948;-57
2021/10/30 06:45:23;;;;;;;3.93;3.63;;;;;;;7.41;82.79;101028.30;1763037;80;21535;-57
2021/10/30 06:47:49;;;;;;;6.15;3.70;;;;;;;7.41;82.82;101022.95;1761637;79;21043;-56
2021/10/30 06:50:20;;;;;;;6.40;4.30;;;;;;;7.44;82.80;101026.05;1759400;80;21064;-57
2021/10/30 06:52:49;;;;;;;7.77;4.00;;;;;;;7.45;82.69;101028.70;1764621;80;21066;-57
2021/10/30 06:55:16;;;;;;;3.67;3.37;;;;;;;7.43;82.57;101025.61;1764822;80;21009;-57
2021/10/30 06:57:42;;;;;;;4.50;4.10;;;;;;;7.42;82.57;101024.72;1766260;80;21096;-56
2021/10/30 07:00:10;;;;;;;3.50;3.30;;;;;;;7.42;82.51;101031.88;1762131;80;21093;-56
2021/10/30 07:02:37;;;;;;;7.40;3.47;;;;;;;7.40;82.51;101033.72;1764727;80;21066;-58
2021/10/30 07:05:05;;;;;;;6.07;4.50;;;;;;;7.37;82.58;101030.62;1761833;80;21061;-58
2021/10/30 07:07:31;;;;;;;5.07;4.67;;;;;;;7.37;82.59;101023.92;1759977;80;21056;-56
2021/10/30 07:10:00;;;;;;;3.33;3.13;;;;;;;7.39;82.66;101034.62;1761815;80;21084;-58
2021/10/30 07:12:33;;;;;;;3.67;3.37;;;;;;;7.42;82.68;101034.09;1761160;80;21764;-58
2021/10/30 07:14:59;;;;;;;4.77;4.00;;;;;;;7.44;82.58;101027.38;1761423;80;21314;-55
2021/10/30 07:17:27;;;;;;;4.43;4.03;;;;;;;7.44;82.60;101034.97;1761774;80;22268;-56
2021/10/30 07:19:54;;;;;;;4.40;4.10;;;;;;;7.46;82.58;101033.61;1764645;80;22678;-56
2021/10/30 07:22:20;;;;;;;4.50;4.20;;;;;;;7.47;82.59;101040.75;1762356;80;21124;-57
2021/10/30 07:24:47;;;;;;;5.53;5.12;;;;;;;7.48;82.63;101034.03;1757349;80;21121;-58
2021/10/30 07:27:16;;;;;;;3.62;3.27;;;;;;;7.52;82.72;101034.84;1761440;80;21062;-57
2021/10/30 07:29:44;;;;;;;4.20;3.80;;;;;;;7.57;82.82;101035.68;1766708;80;21422;-57
2021/10/30 07:32:10;;;;;;;5.10;3.37;;;;;;;7.65;82.84;101043.14;1763775;80;21045;-56
2021/10/30 07:34:37;;;;;;;4.55;4.25;;;;;;;7.69;82.64;101039.94;1765476;80;21239;-58
2021/10/30 07:37:04;;;;;;;5.30;4.90;;;;;;;7.71;82.40;101038.13;1758589;80;21061;-57
2021/10/30 07:39:30;;;;;;;5.62;5.25;;;;;;;7.71;82.17;101034.11;1765922;80;21492;-56
2021/10/30 07:41:57;;;;;;;5.67;5.17;;;;;;;7.67;81.97;101041.75;1763464;80;21049;-57
2021/10/30 07:44:23;;;;;;;8.38;6.80;;;;;;;7.65;81.93;101039.58;1766902;80;21041;-58
2021/10/30 07:46:49;;;;;;;6.08;5.47;;;;;;;7.67;81.93;101037.73;1773291;80;21085;-56
2021/10/30 07:49:16;;;;;;;5.43;4.60;;;;;;;7.67;81.91;101041.30;1764225;80;21089;-58
2021/10/30 07:54:05;;;;;;;5.77;4.83;;;;;;;7.79;81.87;101045.59;1866175;75;22736;-56
2021/10/30 07:56:33;;;;;;;7.53;6.83;;;;;;;7.77;81.90;101051.42;1836795;77;21007;-56
2021/10/30 07:58:59;;;;;;;7.67;6.47;;;;;;;7.78;81.82;101046.49;1839340;77;21210;-57
2021/10/30 08:01:27;;;;;;;7.47;6.78;;;;;;;7.79;81.71;101049.61;1836391;77;20945;-56
2021/10/30 08:03:54;;;;;;;6.73;6.10;;;;;;;7.80;81.72;101046.02;1799253;78;20977;-58
2021/10/30 08:06:20;;;;;;;6.22;5.72;;;;;;;7.83;81.75;101046.84;1771791;80;21381;-56
2021/10/30 08:08:47;;;;;;;6.17;5.73;;;;;;;7.85;81.68;101046.81;1796906;78;22419;-55
2021/10/30 08:11:13;;;;;;;4.30;3.98;;;;;;;7.86;81.63;101044.57;1768244;80;22346;-57
2021/10/30 08:13:40;;;;;;;5.97;4.50;;;;;;;7.88;81.62;101048.12;1797822;78;21381;-59
2021/10/30 08:16:06;;;;;;;7.53;6.70;;;;;;;7.90;81.58;101043.17;1803094;78;21037;-56
2021/10/30 08:18:33;;;;;;;7.70;6.33;;;;;;;7.92;81.41;101053.84;1803576;78;21037;-57
2021/10/30 08:21:00;;;;;;;8.10;7.30;;;;;;;7.92;81.25;101043.12;1802851;78;21029;-57
2021/10/30 08:23:26;;;;;;;8.70;7.85;;;;;;;7.93;81.10;101048.91;1798358;78;21099;-57
2021/10/30 08:25:52;;;;;;;7.35;6.65;;;;;;;7.94;81.02;101054.71;1764472;78;21096;-57
2021/10/30 08:28:18;;;;;;;6.62;6.03;;;;;;;7.94;80.90;101053.37;1780574;79;21053;-56
2021/10/30 08:30:45;;;;;;;5.70;5.05;;;;;;;7.97;80.85;101055.55;1774160;79;21075;-58
2021/10/30 08:33:13;;;;;;;6.95;6.03;;;;;;;7.98;80.65;101052.42;1776585;79;21519;-57
2021/10/30 08:35:40;;;;;;;7.85;6.85;;;;;;;7.96;80.47;101062.28;1775633;79;22599;-57
2021/10/30 08:38:09;;;;;;;8.08;7.00;;;;;;;7.93;80.44;101050.25;1775187;79;21096;-57
2021/10/30 08:40:38;;;;;;;6.80;6.20;;;;;;;7.89;80.37;101056.59;1774378;79;21042;-56
2021/10/30 08:43:08;;;;;;;6.58;5.90;;;;;;;7.84;80.37;101054.42;1779005;79;21390;-58
2021/10/30 08:45:36;;;;;;;7.03;5.62;;;;;;;7.79;80.39;101050.50;1776285;79;22251;-57
2021/10/30 08:48:04;;;;;;;8.90;6.83;;;;;;;7.76;80.43;101055.89;1801173;78;21479;-56
2021/10/30 08:50:32;;;;;;;5.78;5.05;;;;;;;7.75;80.53;101052.78;1778085;78;21059;-57
2021/10/30 08:53:00;;;;;;;7.03;6.25;;;;;;;7.74;80.63;101051.49;1758336;80;21083;-56
2021/10/30 08:55:27;;;;;;;5.85;4.97;;;;;;;7.76;80.63;101048.31;1812972;78;21504;-58
2021/10/30 08:57:53;;;;;;;8.33;6.25;;;;;;;7.78;80.71;101055.88;1812396;78;21064;-58
2021/10/30 09:00:25;;;;;;;11.08;6.47;;;;;;;7.78;80.74;101046.49;1811131;78;21130;-56
2021/10/30 09:02:58;;;;;;;7.70;5.78;;;;;;;7.79;80.76;101053.17;1783420;78;21542;-56
2021/10/30 09:05:25;;;;;;;7.65;5.17;;;;;;;7.81;80.83;101054.05;1809125;78;20875;-57
2021/10/30 09:07:52;;;;;;;6.45;5.50;;;;;;;7.80;80.82;101056.29;1811709;78;20945;-55
2021/10/30 09:10:25;;;;;;;4.62;4.28;;;;;;;7.80;80.87;101045.57;1810901;78;20882;-57
2021/10/30 09:12:55;;;;;;;4.05;3.75;;;;;;;7.81;80.88;101046.00;1783055;79;22178;-55
2021/10/30 09:15:34;;;;;;;11.35;4.65;;;;;;;7.84;80.86;101049.06;1810641;78;21562;-55
2021/10/30 09:18:02;;;;;;;4.97;4.47;;;;;;;7.86;80.94;101048.59;1782707;80;20941;-55
2021/10/30 09:20:36;;;;;;;5.25;4.85;;;;;;;7.89;81.06;101046.76;1781874;80;20913;-55
2021/10/30 09:23:08;;;;;;;3.60;3.33;;;;;;;7.93;81.13;101049.80;1811241;78;20895;-55
2021/10/30 09:25:34;;;;;;;4.05;3.85;;;;;;;7.97;80.99;101050.20;1787411;78;21084;-56
2021/10/30 09:28:02;;;;;;;4.22;3.00;;;;;;;7.95;80.85;101047.09;1793543;78;20943;-55
2021/10/30 09:30:34;;;;;;;3.33;3.12;;;;;;;7.92;80.78;101051.16;1790989;79;21482;-55
2021/10/30 09:33:06;;;;;;;3.62;3.35;;;;;;;7.89;80.77;101048.55;1797381;79;20915;-56
2021/10/30 09:35:46;;;;;;;3.83;2.35;;;;;;;7.89;80.81;101055.25;1789337;79;20961;-56
2021/10/30 09:38:36;;;;;;;2.55;2.35;;;;;;;7.92;80.85;101054.73;1816379;78;21942;-56
2021/10/30 09:41:06;;;;;;;2.12;2.02;;;;;;;7.94;80.70;101048.00;1816134;78;20851;-57
2021/10/30 09:43:32;;;;;;;2.33;2.20;;;;;;;7.96;80.62;101050.22;1807704;78;20961;-57
2021/10/30 09:46:06;;;;;;;2.42;2.20;;;;;;;7.98;80.55;101053.77;1812955;78;21440;-55
2021/10/30 09:48:33;;;;;;;2.83;2.45;;;;;;;7.98;80.54;101052.42;1813122;78;20949;-57
2021/10/30 09:51:02;;;;;;;3.12;2.92;;;;;;;8.00;80.53;101043.87;1789719;78;21082;-57
2021/10/30 09:53:35;;;;;;;3.47;3.00;;;;;;;8.01;80.48;101042.08;1765597;80;21030;-56
2021/10/30 09:56:05;;;;;;;2.47;2.37;;;;;;;8.00;80.41;101041.19;1778896;79;21453;-57
2021/10/30 09:58:44;;;;;;;5.42;2.47;;;;;;;7.99;80.44;101040.79;1792365;78;21382;-55
2021/10/30 10:01:14;;;;;;;2.12;1.98;;;;;;;7.99;80.47;101043.47;1809191;78;20878;-55
2021/10/30 10:03:41;;;;;;;2.50;2.30;;;;;;;8.01;80.44;101040.28;1804994;78;21115;-56
2021/10/30 10:06:10;;;;;;;2.80;2.58;;;;;;;8.02;80.44;101038.03;1807070;78;21053;-56
2021/10/30 10:08:40;;;;;;;2.60;2.40;;;;;;;8.03;80.46;101038.47;1795482;78;21110;-55
2021/10/30 10:11:10;;;;;;;3.85;2.70;;;;;;;8.02;80.47;101034.02;1808728;78;20997;-55
2021/10/30 10:13:40;;;;;;;2.40;2.20;;;;;;;8.03;80.46;101030.42;1776410;80;21858;-57
2021/10/30 10:16:19;;;;;;;3.95;3.02;;;;;;;8.05;80.46;101038.45;1779033;79;21107;-57
2021/10/30 10:18:48;;;;;;;2.57;2.33;;;;;;;8.07;80.48;101038.86;1787326;79;21000;-56
2021/10/30 10:21:28;;;;;;;2.85;2.20;;;;;;;8.10;80.50;101032.08;1802921;78;20910;-55
2021/10/30 10:23:55;;;;;;;3.22;2.02;;;;;;;8.11;80.56;101028.48;1809263;78;20887;-55
2021/10/30 10:26:31;;;;;;;4.65;2.00;;;;;;;8.17;80.70;101029.70;1793759;78;20936;-54
2021/10/30 10:29:04;;;;;;;4.67;4.15;;;;;;;8.22;80.72;101022.94;1753536;79;21135;-54
2021/10/30 10:31:30;;;;;;;4.33;3.47;;;;;;;8.25;80.63;101021.55;1789349;79;21037;-58
2021/10/30 10:34:15;;;;;;;5.08;4.42;;;;;;;8.27;80.70;101017.02;1780966;79;21085;-58
2021/10/30 10:36:42;;;;;;;5.10;3.70;;;;;;;8.28;80.64;101014.31;1677575;79;21119;-56
2021/10/30 10:39:18;;;;;;;3.83;3.42;;;;;;;8.30;80.56;101026.36;1788811;79;21087;-56
2021/10/30 10:41:50;;;;;;;3.65;3.35;;;;;;;8.30;80.56;101020.54;1781264;79;21183;-56
2021/10/30 10:44:31;;;;;;;2.52;2.35;;;;;;;8.31;80.57;101018.32;1783371;79;21288;-55
2021/10/30 10:46:58;;;;;;;2.90;2.70;;;;;;;8.34;80.55;101014.22;1785364;79;21091;-56
2021/10/30 10:49:43;;;;;;;4.15;3.17;;;;;;;8.36;80.44;101012.85;1781417;79;21502;-56
2021/10/30 10:52:19;;;;;;;6.70;2.98;;;;;;;8.34;80.37;101014.22;1805992;78;21072;-58
2021/10/30 10:55:03;;;;;;;3.83;3.35;;;;;;;8.34;80.41;101014.22;1784740;78;21358;-58
2021/10/30 11:00:11;;;;;;;3.57;3.37;;;;;;;8.34;80.25;101006.17;1771902;78;22468;-58
2021/10/30 11:02:39;;;;;;;3.45;3.15;;;;;;;8.29;80.28;101013.86;1734226;80;21312;-59
2021/10/30 11:05:19;;;;;;;3.75;3.55;;;;;;;8.28;80.32;101004.92;1681122;83;22104;-57
2021/10/30 11:07:53;;;;;;;5.03;3.50;;;;;;;8.28;80.40;101001.35;1676427;83;20938;-57
2021/10/30 11:10:33;;;;;;;4.95;4.28;;;;;;;8.28;80.52;100999.55;1696314;82;20974;-56
2021/10/30 11:13:05;;;;;;;4.55;4.20;;;;;;;8.29;80.54;100994.62;1702087;82;22073;-58
2021/10/30 11:15:42;;;;;;;4.37;3.98;;;;;;;8.29;80.63;100994.62;1700285;82;21605;-57
2021/10/30 11:18:13;;;;;;;;;;;;;;;8.35;80.69;100992.30;1702626;82;21119;-57
2021/10/30 11:20:45;;;;;;;6.72;5.80;;;;;;;8.38;80.62;100981.97;1681332;82;20220;-57
2021/10/30 11:23:25;;;;;;;5.60;5.20;;;;;;;8.39;80.60;100981.95;1701643;82;21037;-58
2021/10/30 11:26:09;;;;;;;6.42;5.92;;;;;;;8.40;80.58;100986.41;1685357;82;22246;-58
2021/10/30 11:28:39;;;;;;;5.65;5.17;;;;;;;8.42;80.54;100990.41;1695598;82;21113;-57
2021/10/30 11:31:15;;;;;;;6.55;5.95;;;;;;;8.44;80.57;100992.58;1703434;82;21136;-58
2021/10/30 11:33:43;;;;;;;8.15;4.62;;;;;;;8.44;80.61;100990.78;1685149;82;21089;-58
2021/10/30 11:36:11;;;;;;;6.55;5.97;;;;;;;8.45;80.61;100988.98;1681475;84;21092;-56
2021/10/30 11:38:49;;;;;;;7.03;6.17;;;;;;;8.43;80.61;100991.69;1681003;83;21608;-58
2021/10/30 11:41:18;;;;;;;8.40;7.40;;;;;;;8.45;80.69;100991.66;1679855;84;21132;-58